Terminal Aerodrome Forecast
Issued by NWS

Home | Current Version | Previous Version | Text Only | Print | Product List | Glossary On
Versions: 1 2 3 4 5 6 7 8 9 10 11 12 13 14 15 16 17 18
000
FTUS43 KIND 310500
TAFHUF
TAF
KHUF 310520Z 3106/0106 18009KT P6SM FEW015 BKN080
     FM310800 19006KT 5SM BR BKN015
     FM311800 21010KT P6SM BKN025
     FM312100 19007KT P6SM BKN050=

USA.gov is the U.S. government's official web portal to all federal, state and local government web resources and services.